sensor_id;sensor_type;location;lat;lon;timestamp;P1;durP1;ratioP1;P2;durP2;ratioP2
47381;SDS011;33128;51.580;5.170;2023-01-13T06:34:35;54.85;;;52.15;;
47381;SDS011;33128;51.580;5.170;2023-01-13T06:37:02;53.58;;;50.78;;
47381;SDS011;33128;51.580;5.170;2023-01-13T06:39:28;50.63;;;48.00;;
47381;SDS011;33128;51.580;5.170;2023-01-13T06:41:55;51.67;;;48.95;;
47381;SDS011;33128;51.580;5.170;2023-01-13T06:44:41;52.78;;;49.35;;
47381;SDS011;33128;51.580;5.170;2023-01-13T06:47:07;50.08;;;47.08;;
47381;SDS011;33128;51.580;5.170;2023-01-13T06:49:33;51.08;;;47.58;;
47381;SDS011;33128;51.580;5.170;2023-01-13T06:51:59;50.30;;;47.63;;
47381;SDS011;33128;51.580;5.170;2023-01-13T06:54:24;53.10;;;49.88;;
47381;SDS011;33128;51.580;5.170;2023-01-13T06:56:50;51.42;;;48.72;;
47381;SDS011;33128;51.580;5.170;2023-01-13T06:59:18;50.85;;;48.05;;
47381;SDS011;33128;51.580;5.170;2023-01-13T07:01:44;51.75;;;48.42;;
47381;SDS011;33128;51.580;5.170;2023-01-13T07:04:09;53.65;;;50.88;;
47381;SDS011;33128;51.580;5.170;2023-01-13T07:06:35;50.78;;;47.85;;
47381;SDS011;33128;51.580;5.170;2023-01-13T07:09:01;50.50;;;47.90;;
47381;SDS011;33128;51.580;5.170;2023-01-13T07:11:27;52.90;;;49.72;;
47381;SDS011;33128;51.580;5.170;2023-01-13T07:13:52;52.92;;;50.13;;
47381;SDS011;33128;51.580;5.170;2023-01-13T07:16:36;48.47;;;45.58;;
47381;SDS011;33128;51.580;5.170;2023-01-13T07:19:02;48.78;;;46.08;;
47381;SDS011;33128;51.580;5.170;2023-01-13T07:21:27;55.33;;;52.20;;
47381;SDS011;33128;51.580;5.170;2023-01-13T07:23:53;58.25;;;54.88;;
47381;SDS011;33128;51.580;5.170;2023-01-13T07:26:18;58.50;;;55.08;;
47381;SDS011;33128;51.580;5.170;2023-01-13T07:28:44;54.03;;;51.13;;
47381;SDS011;33128;51.580;5.170;2023-01-13T07:31:16;56.90;;;53.58;;
47381;SDS011;33128;51.580;5.170;2023-01-13T07:33:44;57.17;;;54.28;;
47381;SDS011;33128;51.580;5.170;2023-01-13T07:36:10;58.00;;;54.65;;
47381;SDS011;33128;51.580;5.170;2023-01-13T07:38:36;56.03;;;52.72;;
47381;SDS011;33128;51.580;5.170;2023-01-13T07:41:04;55.03;;;51.58;;
47381;SDS011;33128;51.580;5.170;2023-01-13T07:43:48;53.53;;;50.47;;
47381;SDS011;33128;51.580;5.170;2023-01-13T07:46:15;48.53;;;46.03;;
47381;SDS011;33128;51.580;5.170;2023-01-13T07:48:41;49.35;;;46.50;;
47381;SDS011;33128;51.580;5.170;2023-01-13T07:51:08;52.75;;;49.90;;
47381;SDS011;33128;51.580;5.170;2023-01-13T07:53:35;51.33;;;48.35;;
47381;SDS011;33128;51.580;5.170;2023-01-13T07:56:02;47.20;;;44.38;;
47381;SDS011;33128;51.580;5.170;2023-01-13T07:58:29;46.90;;;44.33;;
47381;SDS011;33128;51.580;5.170;2023-01-13T08:00:55;47.85;;;44.75;;
47381;SDS011;33128;51.580;5.170;2023-01-13T08:03:21;49.60;;;46.78;;
47381;SDS011;33128;51.580;5.170;2023-01-13T08:05:47;48.00;;;45.28;;
47381;SDS011;33128;51.580;5.170;2023-01-13T08:08:13;53.47;;;49.92;;
47381;SDS011;33128;51.580;5.170;2023-01-13T08:10:38;52.55;;;48.92;;
47381;SDS011;33128;51.580;5.170;2023-01-13T08:13:11;49.90;;;46.58;;
47381;SDS011;33128;51.580;5.170;2023-01-13T08:15:46;46.60;;;43.75;;
47381;SDS011;33128;51.580;5.170;2023-01-13T08:18:16;47.47;;;44.47;;
47381;SDS011;33128;51.580;5.170;2023-01-13T08:20:44;47.58;;;44.80;;
47381;SDS011;33128;51.580;5.170;2023-01-13T08:23:10;49.55;;;46.17;;
47381;SDS011;33128;51.580;5.170;2023-01-13T08:25:36;47.95;;;44.95;;
47381;SDS011;33128;51.580;5.170;2023-01-13T08:28:01;48.47;;;44.90;;
47381;SDS011;33128;51.580;5.170;2023-01-13T08:30:27;51.03;;;47.83;;
47381;SDS011;33128;51.580;5.170;2023-01-13T08:32:53;49.70;;;47.00;;
47381;SDS011;33128;51.580;5.170;2023-01-13T08:35:19;50.58;;;47.13;;
47381;SDS011;33128;51.580;5.170;2023-01-13T08:37:45;51.88;;;48.00;;
47381;SDS011;33128;51.580;5.170;2023-01-13T08:40:12;48.88;;;45.92;;
47381;SDS011;33128;51.580;5.170;2023-01-13T08:42:39;51.28;;;47.35;;
47381;SDS011;33128;51.580;5.170;2023-01-13T08:45:05;48.13;;;44.95;;
47381;SDS011;33128;51.580;5.170;2023-01-13T08:47:31;50.40;;;46.70;;
47381;SDS011;33128;51.580;5.170;2023-01-13T08:49:57;48.70;;;45.50;;
47381;SDS011;33128;51.580;5.170;2023-01-13T08:52:22;51.03;;;47.70;;
47381;SDS011;33128;51.580;5.170;2023-01-13T08:54:48;49.33;;;46.13;;
47381;SDS011;33128;51.580;5.170;2023-01-13T08:57:14;48.25;;;44.60;;
47381;SDS011;33128;51.580;5.170;2023-01-13T08:59:39;48.22;;;45.08;;
47381;SDS011;33128;51.580;5.170;2023-01-13T09:02:13;47.15;;;44.22;;
47381;SDS011;33128;51.580;5.170;2023-01-13T09:04:44;48.85;;;45.53;;
47381;SDS011;33128;51.580;5.170;2023-01-13T09:07:10;49.92;;;45.97;;
47381;SDS011;33128;51.580;5.170;2023-01-13T09:09:36;47.13;;;44.08;;
47381;SDS011;33128;51.580;5.170;2023-01-13T09:12:03;49.42;;;46.17;;
47381;SDS011;33128;51.580;5.170;2023-01-13T09:14:48;50.58;;;47.05;;
47381;SDS011;33128;51.580;5.170;2023-01-13T09:17:14;48.83;;;45.85;;
47381;SDS011;33128;51.580;5.170;2023-01-13T09:19:40;50.05;;;46.75;;
47381;SDS011;33128;51.580;5.170;2023-01-13T09:22:06;48.60;;;45.80;;
47381;SDS011;33128;51.580;5.170;2023-01-13T09:24:33;47.60;;;44.63;;
47381;SDS011;33128;51.580;5.170;2023-01-13T09:26:59;45.47;;;42.83;;
47381;SDS011;33128;51.580;5.170;2023-01-13T09:29:24;43.72;;;40.70;;
47381;SDS011;33128;51.580;5.170;2023-01-13T09:31:50;43.20;;;40.60;;
47381;SDS011;33128;51.580;5.170;2023-01-13T09:34:17;45.20;;;42.65;;
47381;SDS011;33128;51.580;5.170;2023-01-13T09:37:03;44.58;;;42.13;;
47381;SDS011;33128;51.580;5.170;2023-01-13T09:39:30;44.40;;;41.33;;
47381;SDS011;33128;51.580;5.170;2023-01-13T09:41:57;43.20;;;40.50;;
47381;SDS011;33128;51.580;5.170;2023-01-13T09:44:53;44.20;;;41.35;;
47381;SDS011;33128;51.580;5.170;2023-01-13T09:47:32;43.70;;;41.33;;
47381;SDS011;33128;51.580;5.170;2023-01-13T09:52:39;46.05;;;43.25;;
47381;SDS011;33128;51.580;5.170;2023-01-13T09:55:10;47.95;;;44.75;;
47381;SDS011;33128;51.580;5.170;2023-01-13T09:57:42;47.90;;;44.83;;
47381;SDS011;33128;51.580;5.170;2023-01-13T10:00:12;47.70;;;44.80;;
47381;SDS011;33128;51.580;5.170;2023-01-13T10:05:31;48.25;;;45.10;;
47381;SDS011;33128;51.580;5.170;2023-01-13T10:08:09;49.67;;;46.60;;
47381;SDS011;33128;51.580;5.170;2023-01-13T10:10:46;48.97;;;45.22;;
47381;SDS011;33128;51.580;5.170;2023-01-13T10:15:50;60.15;;;55.28;;
47381;SDS011;33128;51.580;5.170;2023-01-13T10:18:26;54.05;;;50.15;;
47381;SDS011;33128;51.580;5.170;2023-01-13T10:23:55;56.33;;;52.25;;
47381;SDS011;33128;51.580;5.170;2023-01-13T10:29:24;53.58;;;49.53;;
47381;SDS011;33128;51.580;5.170;2023-01-13T10:31:52;51.67;;;48.17;;
47381;SDS011;33128;51.580;5.170;2023-01-13T10:34:24;51.22;;;46.88;;
47381;SDS011;33128;51.580;5.170;2023-01-13T10:39:42;46.28;;;42.50;;
47381;SDS011;33128;51.580;5.170;2023-01-13T10:42:16;46.95;;;43.67;;
47381;SDS011;33128;51.580;5.170;2023-01-13T10:44:56;45.67;;;42.38;;
47381;SDS011;33128;51.580;5.170;2023-01-13T10:47:24;44.15;;;41.05;;
47381;SDS011;33128;51.580;5.170;2023-01-13T10:50:26;44.47;;;41.45;;
47381;SDS011;33128;51.580;5.170;2023-01-13T10:52:54;44.08;;;40.95;;
47381;SDS011;33128;51.580;5.170;2023-01-13T10:55:32;44.50;;;41.90;;
47381;SDS011;33128;51.580;5.170;2023-01-13T10:58:18;42.90;;;39.58;;
47381;SDS011;33128;51.580;5.170;2023-01-13T11:00:45;43.97;;;40.63;;
47381;SDS011;33128;51.580;5.170;2023-01-13T11:03:20;44.65;;;41.25;;
47381;SDS011;33128;51.580;5.170;2023-01-13T11:05:48;45.03;;;42.30;;
47381;SDS011;33128;51.580;5.170;2023-01-13T11:08:17;42.30;;;39.50;;
47381;SDS011;33128;51.580;5.170;2023-01-13T11:10:45;44.10;;;40.92;;
47381;SDS011;33128;51.580;5.170;2023-01-13T11:13:18;44.33;;;41.08;;
47381;SDS011;33128;51.580;5.170;2023-01-13T11:18:27;43.45;;;40.10;;
47381;SDS011;33128;51.580;5.170;2023-01-13T11:20:55;43.08;;;39.28;;
47381;SDS011;33128;51.580;5.170;2023-01-13T11:23:28;43.75;;;40.78;;
47381;SDS011;33128;51.580;5.170;2023-01-13T11:26:08;43.53;;;39.90;;
47381;SDS011;33128;51.580;5.170;2023-01-13T11:28:41;44.25;;;41.17;;
47381;SDS011;33128;51.580;5.170;2023-01-13T11:31:20;47.70;;;44.78;;
47381;SDS011;33128;51.580;5.170;2023-01-13T11:36:59;45.72;;;42.28;;
47381;SDS011;33128;51.580;5.170;2023-01-13T11:45:33;47.03;;;44.15;;
47381;SDS011;33128;51.580;5.170;2023-01-13T11:47:35;47.40;;;44.03;;
47381;SDS011;33128;51.580;5.170;2023-01-13T11:50:01;47.47;;;44.40;;
47381;SDS011;33128;51.580;5.170;2023-01-13T11:52:32;48.80;;;45.47;;
47381;SDS011;33128;51.580;5.170;2023-01-13T11:55:24;46.67;;;43.38;;
47381;SDS011;33128;51.580;5.170;2023-01-13T12:03:39;47.30;;;44.08;;
47381;SDS011;33128;51.580;5.170;2023-01-13T12:06:40;45.75;;;43.08;;
47381;SDS011;33128;51.580;5.170;2023-01-13T12:09:19;46.00;;;42.92;;
47381;SDS011;33128;51.580;5.170;2023-01-13T12:17:38;44.25;;;41.65;;
47381;SDS011;33128;51.580;5.170;2023-01-13T12:22:46;48.38;;;45.20;;
47381;SDS011;33128;51.580;5.170;2023-01-13T12:27:50;43.05;;;40.13;;
47381;SDS011;33128;51.580;5.170;2023-01-13T12:32:53;44.03;;;41.33;;
47381;SDS011;33128;51.580;5.170;2023-01-13T12:38:35;45.05;;;42.30;;
47381;SDS011;33128;51.580;5.170;2023-01-13T12:41:14;41.70;;;39.20;;
47381;SDS011;33128;51.580;5.170;2023-01-13T12:43:47;44.67;;;41.85;;
47381;SDS011;33128;51.580;5.170;2023-01-13T12:46:32;43.67;;;41.08;;
47381;SDS011;33128;51.580;5.170;2023-01-13T12:51:35;44.95;;;42.55;;
47381;SDS011;33128;51.580;5.170;2023-01-13T12:57:21;45.72;;;42.83;;
47381;SDS011;33128;51.580;5.170;2023-01-13T13:02:25;47.55;;;45.13;;
47381;SDS011;33128;51.580;5.170;2023-01-13T13:04:57;44.13;;;41.42;;
47381;SDS011;33128;51.580;5.170;2023-01-13T13:07:43;44.65;;;42.20;;
47381;SDS011;33128;51.580;5.170;2023-01-13T13:10:22;40.75;;;38.30;;
47381;SDS011;33128;51.580;5.170;2023-01-13T13:12:55;43.80;;;40.63;;
47381;SDS011;33128;51.580;5.170;2023-01-13T13:15:41;44.47;;;41.88;;
47381;SDS011;33128;51.580;5.170;2023-01-13T13:20:58;45.63;;;42.83;;
47381;SDS011;33128;51.580;5.170;2023-01-13T13:34:27;46.05;;;43.55;;
47381;SDS011;33128;51.580;5.170;2023-01-13T13:39:43;46.55;;;43.70;;
47381;SDS011;33128;51.580;5.170;2023-01-13T13:42:34;47.22;;;44.42;;
47381;SDS011;33128;51.580;5.170;2023-01-13T13:45:35;45.22;;;42.13;;
47381;SDS011;33128;51.580;5.170;2023-01-13T13:48:20;46.78;;;44.17;;
47381;SDS011;33128;51.580;5.170;2023-01-13T13:50:47;46.45;;;43.63;;
47381;SDS011;33128;51.580;5.170;2023-01-13T13:53:13;48.72;;;45.83;;
47381;SDS011;33128;51.580;5.170;2023-01-13T13:55:40;46.15;;;43.15;;
47381;SDS011;33128;51.580;5.170;2023-01-13T13:58:21;48.28;;;45.45;;
47381;SDS011;33128;51.580;5.170;2023-01-13T14:00:50;46.10;;;43.53;;
47381;SDS011;33128;51.580;5.170;2023-01-13T14:03:20;48.65;;;45.95;;
47381;SDS011;33128;51.580;5.170;2023-01-13T14:05:55;48.08;;;45.42;;
47381;SDS011;33128;51.580;5.170;2023-01-13T14:08:27;47.83;;;45.22;;
47381;SDS011;33128;51.580;5.170;2023-01-13T14:10:54;47.35;;;44.75;;
47381;SDS011;33128;51.580;5.170;2023-01-13T14:13:24;49.63;;;46.25;;
47381;SDS011;33128;51.580;5.170;2023-01-13T14:15:58;45.13;;;42.22;;
47381;SDS011;33128;51.580;5.170;2023-01-13T14:18:29;47.92;;;45.22;;
47381;SDS011;33128;51.580;5.170;2023-01-13T14:21:04;45.58;;;43.13;;
47381;SDS011;33128;51.580;5.170;2023-01-13T14:23:50;46.20;;;43.05;;
47381;SDS011;33128;51.580;5.170;2023-01-13T14:26:22;45.92;;;43.33;;
47381;SDS011;33128;51.580;5.170;2023-01-13T14:28:49;43.60;;;41.00;;
47381;SDS011;33128;51.580;5.170;2023-01-13T14:31:15;43.58;;;40.88;;
47381;SDS011;33128;51.580;5.170;2023-01-13T14:33:45;45.13;;;42.38;;
47381;SDS011;33128;51.580;5.170;2023-01-13T14:41:29;40.58;;;38.22;;
47381;SDS011;33128;51.580;5.170;2023-01-13T14:44:24;45.15;;;42.55;;
47381;SDS011;33128;51.580;5.170;2023-01-13T14:46:59;46.63;;;43.53;;
47381;SDS011;33128;51.580;5.170;2023-01-13T14:49:59;44.75;;;41.88;;
47381;SDS011;33128;51.580;5.170;2023-01-13T14:52:31;46.47;;;43.17;;
47381;SDS011;33128;51.580;5.170;2023-01-13T14:57:34;43.88;;;41.30;;
47381;SDS011;33128;51.580;5.170;2023-01-13T15:02:42;47.75;;;45.17;;
47381;SDS011;33128;51.580;5.170;2023-01-13T15:07:54;44.58;;;42.13;;
47381;SDS011;33128;51.580;5.170;2023-01-13T15:10:30;45.17;;;42.45;;
47381;SDS011;33128;51.580;5.170;2023-01-13T15:12:58;45.05;;;42.55;;
47381;SDS011;33128;51.580;5.170;2023-01-13T15:15:33;40.95;;;38.85;;
47381;SDS011;33128;51.580;5.170;2023-01-13T15:18:02;43.85;;;41.20;;
47381;SDS011;33128;51.580;5.170;2023-01-13T15:20:37;42.20;;;39.67;;
47381;SDS011;33128;51.580;5.170;2023-01-13T15:23:03;42.35;;;39.75;;
47381;SDS011;33128;51.580;5.170;2023-01-13T15:25:35;40.72;;;38.53;;
47381;SDS011;33128;51.580;5.170;2023-01-13T15:28:04;42.13;;;39.72;;
47381;SDS011;33128;51.580;5.170;2023-01-13T15:30:30;42.25;;;39.20;;
47381;SDS011;33128;51.580;5.170;2023-01-13T15:32:56;42.20;;;39.72;;
47381;SDS011;33128;51.580;5.170;2023-01-13T15:35:24;42.90;;;40.30;;
47381;SDS011;33128;51.580;5.170;2023-01-13T15:37:51;44.13;;;41.50;;
47381;SDS011;33128;51.580;5.170;2023-01-13T15:40:21;40.05;;;37.55;;
47381;SDS011;33128;51.580;5.170;2023-01-13T15:42:53;44.85;;;42.35;;
47381;SDS011;33128;51.580;5.170;2023-01-13T15:45:37;44.00;;;41.47;;
47381;SDS011;33128;51.580;5.170;2023-01-13T15:48:23;44.05;;;41.65;;
47381;SDS011;33128;51.580;5.170;2023-01-13T15:50:50;45.28;;;42.55;;
47381;SDS011;33128;51.580;5.170;2023-01-13T15:53:16;45.17;;;42.58;;
47381;SDS011;33128;51.580;5.170;2023-01-13T15:55:42;40.60;;;37.83;;
47381;SDS011;33128;51.580;5.170;2023-01-13T15:58:11;42.90;;;40.33;;
47381;SDS011;33128;51.580;5.170;2023-01-13T16:00:38;42.20;;;39.85;;
47381;SDS011;33128;51.580;5.170;2023-01-13T16:03:04;43.70;;;41.22;;
47381;SDS011;33128;51.580;5.170;2023-01-13T16:05:30;42.15;;;39.72;;
47381;SDS011;33128;51.580;5.170;2023-01-13T16:07:56;42.45;;;39.70;;
47381;SDS011;33128;51.580;5.170;2023-01-13T16:10:23;40.85;;;38.55;;
47381;SDS011;33128;51.580;5.170;2023-01-13T16:12:50;40.92;;;38.72;;
47381;SDS011;33128;51.580;5.170;2023-01-13T16:15:17;37.58;;;35.33;;
47381;SDS011;33128;51.580;5.170;2023-01-13T16:17:46;38.85;;;36.20;;
47381;SDS011;33128;51.580;5.170;2023-01-13T16:20:19;38.88;;;36.55;;
47381;SDS011;33128;51.580;5.170;2023-01-13T16:22:45;42.17;;;39.38;;
47381;SDS011;33128;51.580;5.170;2023-01-13T16:25:15;40.53;;;38.38;;
47381;SDS011;33128;51.580;5.170;2023-01-13T16:27:42;39.15;;;36.92;;
47381;SDS011;33128;51.580;5.170;2023-01-13T16:30:16;42.53;;;39.85;;
47381;SDS011;33128;51.580;5.170;2023-01-13T16:32:49;42.97;;;40.58;;
47381;SDS011;33128;51.580;5.170;2023-01-13T16:35:15;43.50;;;40.60;;
47381;SDS011;33128;51.580;5.170;2023-01-13T16:37:42;44.17;;;41.67;;
47381;SDS011;33128;51.580;5.170;2023-01-13T16:40:17;40.35;;;37.78;;
47381;SDS011;33128;51.580;5.170;2023-01-13T16:42:50;42.47;;;40.25;;
47381;SDS011;33128;51.580;5.170;2023-01-13T16:45:16;40.58;;;38.40;;
47381;SDS011;33128;51.580;5.170;2023-01-13T16:47:43;43.10;;;40.70;;
47381;SDS011;33128;51.580;5.170;2023-01-13T16:50:16;45.10;;;41.97;;
47381;SDS011;33128;51.580;5.170;2023-01-13T16:52:46;41.63;;;39.28;;
47381;SDS011;33128;51.580;5.170;2023-01-13T16:55:12;44.15;;;41.67;;
47381;SDS011;33128;51.580;5.170;2023-01-13T16:57:37;45.15;;;42.65;;
47381;SDS011;33128;51.580;5.170;2023-01-13T17:00:03;42.67;;;40.08;;
47381;SDS011;33128;51.580;5.170;2023-01-13T17:02:30;42.55;;;39.83;;
47381;SDS011;33128;51.580;5.170;2023-01-13T17:04:56;41.28;;;38.75;;
47381;SDS011;33128;51.580;5.170;2023-01-13T17:07:21;42.85;;;40.55;;
47381;SDS011;33128;51.580;5.170;2023-01-13T17:09:47;39.75;;;37.22;;
47381;SDS011;33128;51.580;5.170;2023-01-13T17:12:12;41.22;;;38.72;;
47381;SDS011;33128;51.580;5.170;2023-01-13T17:14:38;40.83;;;37.90;;
47381;SDS011;33128;51.580;5.170;2023-01-13T17:17:04;38.55;;;36.25;;
47381;SDS011;33128;51.580;5.170;2023-01-13T17:19:29;39.83;;;37.10;;
47381;SDS011;33128;51.580;5.170;2023-01-13T17:21:55;39.15;;;36.38;;
47381;SDS011;33128;51.580;5.170;2023-01-13T17:24:21;39.25;;;36.90;;
47381;SDS011;33128;51.580;5.170;2023-01-13T17:26:49;36.22;;;33.78;;
47381;SDS011;33128;51.580;5.170;2023-01-13T17:29:19;37.67;;;35.28;;
47381;SDS011;33128;51.580;5.170;2023-01-13T17:31:47;38.75;;;36.42;;
47381;SDS011;33128;51.580;5.170;2023-01-13T17:34:14;40.17;;;37.78;;
47381;SDS011;33128;51.580;5.170;2023-01-13T17:36:39;38.92;;;36.60;;
47381;SDS011;33128;51.580;5.170;2023-01-13T17:39:10;34.92;;;32.83;;
47381;SDS011;33128;51.580;5.170;2023-01-13T17:41:43;39.42;;;36.63;;
47381;SDS011;33128;51.580;5.170;2023-01-13T17:44:12;37.13;;;34.85;;
47381;SDS011;33128;51.580;5.170;2023-01-13T17:46:38;37.70;;;35.40;;
47381;SDS011;33128;51.580;5.170;2023-01-13T17:49:09;39.92;;;37.33;;
47381;SDS011;33128;51.580;5.170;2023-01-13T17:51:38;39.35;;;36.28;;
47381;SDS011;33128;51.580;5.170;2023-01-13T17:54:04;40.95;;;38.28;;
47381;SDS011;33128;51.580;5.170;2023-01-13T17:56:29;39.00;;;36.72;;
47381;SDS011;33128;51.580;5.170;2023-01-13T17:58:55;38.63;;;36.15;;
47381;SDS011;33128;51.580;5.170;2023-01-13T18:01:21;39.60;;;37.05;;
47381;SDS011;33128;51.580;5.170;2023-01-13T18:03:48;39.97;;;37.60;;
47381;SDS011;33128;51.580;5.170;2023-01-13T18:06:17;40.45;;;38.00;;
47381;SDS011;33128;51.580;5.170;2023-01-13T18:08:46;40.10;;;37.30;;
47381;SDS011;33128;51.580;5.170;2023-01-13T18:11:16;41.00;;;38.40;;
47381;SDS011;33128;51.580;5.170;2023-01-13T18:13:44;42.17;;;39.17;;
47381;SDS011;33128;51.580;5.170;2023-01-13T18:16:11;39.60;;;37.10;;
47381;SDS011;33128;51.580;5.170;2023-01-13T18:18:39;40.78;;;38.58;;
47381;SDS011;33128;51.580;5.170;2023-01-13T18:21:08;42.67;;;40.17;;
47381;SDS011;33128;51.580;5.170;2023-01-13T18:24:00;45.75;;;42.65;;
47381;SDS011;33128;51.580;5.170;2023-01-13T18:26:45;42.25;;;39.30;;
47381;SDS011;33128;51.580;5.170;2023-01-13T18:29:29;40.33;;;37.60;;
47381;SDS011;33128;51.580;5.170;2023-01-13T18:31:54;41.53;;;38.90;;
47381;SDS011;33128;51.580;5.170;2023-01-13T18:34:26;38.38;;;36.15;;
47381;SDS011;33128;51.580;5.170;2023-01-13T18:36:51;42.20;;;39.30;;
47381;SDS011;33128;51.580;5.170;2023-01-13T18:39:17;40.85;;;37.92;;
47381;SDS011;33128;51.580;5.170;2023-01-13T18:41:42;37.83;;;35.35;;
47381;SDS011;33128;51.580;5.170;2023-01-13T18:44:27;40.60;;;37.75;;
47381;SDS011;33128;51.580;5.170;2023-01-13T18:46:52;38.30;;;35.63;;
47381;SDS011;33128;51.580;5.170;2023-01-13T18:49:18;40.13;;;37.60;;
47381;SDS011;33128;51.580;5.170;2023-01-13T18:51:43;43.92;;;40.75;;
47381;SDS011;33128;51.580;5.170;2023-01-13T18:54:09;39.60;;;37.03;;
47381;SDS011;33128;51.580;5.170;2023-01-13T18:56:35;39.10;;;36.80;;
47381;SDS011;33128;51.580;5.170;2023-01-13T18:59:01;39.30;;;37.05;;
47381;SDS011;33128;51.580;5.170;2023-01-13T19:01:27;38.55;;;36.25;;
47381;SDS011;33128;51.580;5.170;2023-01-13T19:03:54;40.00;;;36.78;;
47381;SDS011;33128;51.580;5.170;2023-01-13T19:06:20;41.22;;;39.03;;
47381;SDS011;33128;51.580;5.170;2023-01-13T19:08:48;42.70;;;40.20;;
47381;SDS011;33128;51.580;5.170;2023-01-13T19:11:17;45.28;;;42.35;;
47381;SDS011;33128;51.580;5.170;2023-01-13T19:13:44;44.95;;;42.05;;
47381;SDS011;33128;51.580;5.170;2023-01-13T19:16:10;43.78;;;40.95;;
47381;SDS011;33128;51.580;5.170;2023-01-13T19:18:35;44.22;;;41.67;;
47381;SDS011;33128;51.580;5.170;2023-01-13T19:21:04;43.55;;;40.88;;
47381;SDS011;33128;51.580;5.170;2023-01-13T19:23:30;43.85;;;41.45;;
47381;SDS011;33128;51.580;5.170;2023-01-13T19:25:59;44.42;;;41.85;;
47381;SDS011;33128;51.580;5.170;2023-01-13T19:28:26;41.78;;;39.35;;
47381;SDS011;33128;51.580;5.170;2023-01-13T19:30:52;41.53;;;38.45;;
47381;SDS011;33128;51.580;5.170;2023-01-13T19:33:18;43.55;;;40.90;;
47381;SDS011;33128;51.580;5.170;2023-01-13T19:35:44;44.30;;;41.30;;
47381;SDS011;33128;51.580;5.170;2023-01-13T19:38:09;43.17;;;40.42;;
47381;SDS011;33128;51.580;5.170;2023-01-13T19:40:35;41.72;;;39.42;;
47381;SDS011;33128;51.580;5.170;2023-01-13T19:43:01;41.65;;;39.28;;
47381;SDS011;33128;51.580;5.170;2023-01-13T19:45:45;44.90;;;41.72;;
47381;SDS011;33128;51.580;5.170;2023-01-13T19:48:14;42.20;;;39.70;;
47381;SDS011;33128;51.580;5.170;2023-01-13T19:50:40;42.95;;;40.35;;
47381;SDS011;33128;51.580;5.170;2023-01-13T19:53:08;43.63;;;41.08;;
47381;SDS011;33128;51.580;5.170;2023-01-13T19:55:43;41.47;;;38.70;;
47381;SDS011;33128;51.580;5.170;2023-01-13T19:58:11;41.78;;;39.42;;
47381;SDS011;33128;51.580;5.170;2023-01-13T20:00:37;41.97;;;39.17;;
47381;SDS011;33128;51.580;5.170;2023-01-13T20:03:10;41.33;;;38.85;;
47381;SDS011;33128;51.580;5.170;2023-01-13T20:05:37;39.65;;;37.13;;
47381;SDS011;33128;51.580;5.170;2023-01-13T20:08:02;42.78;;;39.92;;
47381;SDS011;33128;51.580;5.170;2023-01-13T20:10:31;43.15;;;40.30;;
47381;SDS011;33128;51.580;5.170;2023-01-13T20:12:57;43.78;;;41.15;;
47381;SDS011;33128;51.580;5.170;2023-01-13T20:15:23;42.97;;;40.47;;
47381;SDS011;33128;51.580;5.170;2023-01-13T20:17:49;44.67;;;41.28;;
47381;SDS011;33128;51.580;5.170;2023-01-13T20:20:15;44.17;;;41.28;;
47381;SDS011;33128;51.580;5.170;2023-01-13T20:22:42;45.30;;;42.30;;
47381;SDS011;33128;51.580;5.170;2023-01-13T20:25:08;43.58;;;40.85;;
47381;SDS011;33128;51.580;5.170;2023-01-13T20:27:34;44.92;;;42.33;;
47381;SDS011;33128;51.580;5.170;2023-01-13T20:30:00;42.58;;;40.13;;
47381;SDS011;33128;51.580;5.170;2023-01-13T20:32:26;42.45;;;39.85;;
47381;SDS011;33128;51.580;5.170;2023-01-13T20:34:51;42.67;;;40.17;;
47381;SDS011;33128;51.580;5.170;2023-01-13T20:37:17;41.33;;;38.30;;
47381;SDS011;33128;51.580;5.170;2023-01-13T20:39:42;44.63;;;41.33;;
47381;SDS011;33128;51.580;5.170;2023-01-13T20:42:09;44.13;;;41.47;;
47381;SDS011;33128;51.580;5.170;2023-01-13T20:44:53;45.47;;;42.53;;
47381;SDS011;33128;51.580;5.170;2023-01-13T20:47:20;43.25;;;40.30;;
47381;SDS011;33128;51.580;5.170;2023-01-13T20:49:46;46.03;;;42.95;;
47381;SDS011;33128;51.580;5.170;2023-01-13T20:52:12;45.65;;;42.78;;
47381;SDS011;33128;51.580;5.170;2023-01-13T20:54:38;44.20;;;41.47;;
47381;SDS011;33128;51.580;5.170;2023-01-13T20:57:04;48.10;;;45.30;;
47381;SDS011;33128;51.580;5.170;2023-01-13T20:59:33;46.83;;;44.13;;
47381;SDS011;33128;51.580;5.170;2023-01-13T21:01:59;42.88;;;40.30;;
47381;SDS011;33128;51.580;5.170;2023-01-13T21:04:25;45.88;;;43.38;;
47381;SDS011;33128;51.580;5.170;2023-01-13T21:06:51;49.88;;;46.88;;
47381;SDS011;33128;51.580;5.170;2023-01-13T21:09:16;45.30;;;42.67;;
47381;SDS011;33128;51.580;5.170;2023-01-13T21:11:42;47.60;;;44.60;;
47381;SDS011;33128;51.580;5.170;2023-01-13T21:14:26;47.15;;;44.03;;
47381;SDS011;33128;51.580;5.170;2023-01-13T21:17:11;47.20;;;44.30;;
47381;SDS011;33128;51.580;5.170;2023-01-13T21:19:59;47.72;;;45.13;;
47381;SDS011;33128;51.580;5.170;2023-01-13T21:22:25;47.97;;;44.85;;
47381;SDS011;33128;51.580;5.170;2023-01-13T21:24:50;48.17;;;45.00;;
47381;SDS011;33128;51.580;5.170;2023-01-13T21:27:16;48.05;;;45.35;;
47381;SDS011;33128;51.580;5.170;2023-01-13T21:29:42;49.22;;;46.00;;
47381;SDS011;33128;51.580;5.170;2023-01-13T21:32:10;49.45;;;46.45;;
47381;SDS011;33128;51.580;5.170;2023-01-13T21:34:36;49.00;;;46.15;;
47381;SDS011;33128;51.580;5.170;2023-01-13T21:37:02;45.78;;;43.00;;
47381;SDS011;33128;51.580;5.170;2023-01-13T21:39:27;47.03;;;44.42;;
47381;SDS011;33128;51.580;5.170;2023-01-13T21:41:53;20.30;;;18.90;;
47381;SDS011;33128;51.580;5.170;2023-01-13T21:44:37;22.25;;;20.45;;
47381;SDS011;33128;51.580;5.170;2023-01-13T21:47:21;21.15;;;19.48;;
47381;SDS011;33128;51.580;5.170;2023-01-13T21:50:06;22.50;;;20.75;;
47381;SDS011;33128;51.580;5.170;2023-01-13T21:52:35;22.08;;;20.55;;
47381;SDS011;33128;51.580;5.170;2023-01-13T21:55:01;22.70;;;20.88;;
47381;SDS011;33128;51.580;5.170;2023-01-13T21:57:48;21.17;;;20.13;;
47381;SDS011;33128;51.580;5.170;2023-01-13T22:00:15;20.80;;;19.63;;
47381;SDS011;33128;51.580;5.170;2023-01-13T22:02:43;24.40;;;22.48;;
47381;SDS011;33128;51.580;5.170;2023-01-13T22:05:09;22.23;;;21.00;;
47381;SDS011;33128;51.580;5.170;2023-01-13T22:07:36;22.17;;;20.90;;
47381;SDS011;33128;51.580;5.170;2023-01-13T22:10:03;22.98;;;21.30;;
47381;SDS011;33128;51.580;5.170;2023-01-13T22:12:30;26.20;;;23.63;;
47381;SDS011;33128;51.580;5.170;2023-01-13T22:14:56;24.17;;;22.13;;
47381;SDS011;33128;51.580;5.170;2023-01-13T22:17:23;23.63;;;21.95;;
47381;SDS011;33128;51.580;5.170;2023-01-13T22:19:50;24.45;;;22.00;;
47381;SDS011;33128;51.580;5.170;2023-01-13T22:22:18;23.73;;;22.15;;
47381;SDS011;33128;51.580;5.170;2023-01-13T22:24:45;23.77;;;21.88;;
47381;SDS011;33128;51.580;5.170;2023-01-13T22:27:12;22.00;;;20.48;;
47381;SDS011;33128;51.580;5.170;2023-01-13T22:29:43;22.63;;;21.20;;
47381;SDS011;33128;51.580;5.170;2023-01-13T22:32:10;21.90;;;20.30;;
47381;SDS011;33128;51.580;5.170;2023-01-13T22:34:35;23.02;;;20.98;;
47381;SDS011;33128;51.580;5.170;2023-01-13T22:37:01;24.45;;;22.35;;
47381;SDS011;33128;51.580;5.170;2023-01-13T22:39:27;23.40;;;21.35;;